Time;durP1;ratioP1;P1;durP2;ratioP2;P2;SDS_P1;SDS_P2;PMS_P1;PMS_P2;Temp;Humidity;BMP_temperature;BMP_pressure;BME280_temperature;BME280_humidity;BME280_pressure;Samples;Min_cycle;Max_cycle;Signal;HPM_P1;HPM_P2
2022/10/12 00:01:40;;;;;;;;;;;8.00;99.90;;;;;;5070881;28;19935;-55
2022/10/12 00:04:08;;;;;;;;;;;7.90;99.90;;;;;;5089183;28;20394;-54
2022/10/12 00:06:36;;;;;;;;;;;7.90;99.90;;;;;;5016071;28;19953;-54
2022/10/12 00:09:03;;;;;;;;;;;7.80;99.90;;;;;;5056015;28;20417;-55
2022/10/12 00:11:30;;;;;;;;;;;7.80;99.90;;;;;;5089031;28;20359;-55
2022/10/12 00:13:58;;;;;;;;;;;7.80;99.90;;;;;;5088152;28;19931;-55
2022/10/12 00:16:30;;;;;;;;;;;7.70;99.90;;;;;;4988295;28;20069;-55
2022/10/12 00:18:58;;;;;;;;;;;7.70;99.90;;;;;;5070417;28;20311;-55
2022/10/12 00:21:26;;;;;;;;;;;7.60;99.90;;;;;;5070910;28;19924;-54
2022/10/12 00:24:00;;;;;;;;;;;7.50;99.90;;;;;;5031408;28;20138;-55
2022/10/12 00:26:28;;;;;;;;;;;7.50;99.90;;;;;;5088723;28;19924;-55
2022/10/12 00:28:57;;;;;;;;;;;7.40;99.90;;;;;;5088260;28;19925;-54
2022/10/12 00:31:25;;;;;;;;;;;7.40;99.90;;;;;;5071024;28;20415;-55
2022/10/12 00:33:52;;;;;;;;;;;7.30;99.90;;;;;;5088409;28;19935;-55
2022/10/12 00:36:21;;;;;;;;;;;7.30;99.90;;;;;;5070743;28;19928;-55
2022/10/12 00:38:49;;;;;;;;;;;7.30;99.90;;;;;;5015628;28;19926;-54
2022/10/12 00:41:18;;;;;;;;;;;7.20;99.90;;;;;;4966887;28;20400;-55
2022/10/12 00:43:46;;;;;;;;;;;7.20;99.90;;;;;;5050669;28;19932;-54
2022/10/12 00:46:17;;;;;;;;;;;7.10;99.90;;;;;;5070586;28;19935;-55
2022/10/12 00:48:47;;;;;;;;;;;7.10;99.90;;;;;;5103640;28;19935;-55
2022/10/12 00:51:15;;;;;;;;;;;7.10;99.90;;;;;;5088630;28;20327;-55
2022/10/12 00:53:46;;;;;;;;;;;7.00;99.90;;;;;;5038916;28;20433;-55
2022/10/12 00:56:17;;;;;;;;;;;7.10;99.90;;;;;;5070453;28;19928;-55
2022/10/12 00:58:46;;;;;;;;;;;7.10;99.90;;;;;;5088439;28;19924;-54
2022/10/12 01:01:13;;;;;;;;;;;7.00;99.90;;;;;;5088044;28;19928;-55
2022/10/12 01:03:41;;;;;;;;;;;7.00;99.90;;;;;;5084769;28;19928;-55
2022/10/12 01:06:09;;;;;;;;;;;7.00;99.90;;;;;;5067743;28;19924;-55
2022/10/12 01:08:36;;;;;;;;;;;7.00;99.90;;;;;;5052561;28;20409;-55
2022/10/12 01:11:04;;;;;;;;;;;7.00;99.90;;;;;;4986096;28;19926;-55
2022/10/12 01:13:31;;;;;;;;;;;7.00;99.90;;;;;;5056778;28;19926;-55
2022/10/12 01:16:05;;;;;;;;;;;7.00;99.90;;;;;;5088579;28;19931;-55
2022/10/12 01:18:42;;;;;;;;;;;7.00;99.90;;;;;;5087750;28;19951;-55
2022/10/12 01:21:17;;;;;;;;;;;6.90;99.90;;;;;;5088450;28;19998;-55
2022/10/12 01:23:53;;;;;;;;;;;6.90;99.90;;;;;;5061734;28;19926;-55
2022/10/12 01:26:30;;;;;;;;;;;6.90;99.90;;;;;;5091881;28;19935;-55
2022/10/12 01:29:08;;;;;;;;;;;6.80;99.90;;;;;;5091726;28;19924;-55
2022/10/12 01:31:41;;;;;;;;;;;6.80;99.90;;;;;;5051561;28;19926;-55
2022/10/12 01:34:16;;;;;;;;;;;6.70;99.90;;;;;;4971639;28;19926;-55
2022/10/12 01:36:47;;;;;;;;;;;6.70;99.90;;;;;;5040095;28;19926;-55
2022/10/12 01:39:20;;;;;;;;;;;6.70;99.90;;;;;;5064749;28;19924;-55
2022/10/12 01:41:53;;;;;;;;;;;6.60;99.90;;;;;;5095222;28;19931;-55
2022/10/12 01:44:21;;;;;;;;;;;6.60;99.90;;;;;;5076956;28;19931;-55
2022/10/12 01:46:49;;;;;;;;;;;6.60;99.90;;;;;;5035617;28;19925;-54
2022/10/12 01:49:21;;;;;;;;;;;6.60;99.90;;;;;;5039326;28;20310;-55
2022/10/12 01:51:57;;;;;;;;;;;6.60;99.90;;;;;;5094895;28;20294;-54
2022/10/12 01:54:37;;;;;;;;;;;6.60;99.90;;;;;;5095149;28;20310;-55
2022/10/12 01:57:15;;;;;;;;;;;6.60;99.90;;;;;;5095218;28;20279;-55
2022/10/12 01:59:52;;;;;;;;;;;6.60;99.90;;;;;;5076052;28;19924;-55
2022/10/12 02:02:19;;;;;;;;;;;6.60;99.90;;;;;;5076840;28;19984;-55
2022/10/12 02:05:03;;;;;;;;;;;6.60;99.90;;;;;;5093363;28;19925;-55
2022/10/12 02:07:33;;;;;;;;;;;6.60;99.90;;;;;;5094415;28;19924;-55
2022/10/12 02:10:01;;;;;;;;;;;6.60;99.90;;;;;;4999537;28;20308;-56
2022/10/12 02:12:30;;;;;;;;;;;6.60;99.90;;;;;;5059262;28;19933;-55
2022/10/12 02:15:00;;;;;;;;;;;6.70;99.90;;;;;;4991720;28;19926;-55
2022/10/12 02:17:31;;;;;;;;;;;6.70;99.90;;;;;;4993245;28;19926;-56
2022/10/12 02:19:59;;;;;;;;;;;6.70;99.90;;;;;;5055200;28;19931;-56
2022/10/12 02:22:33;;;;;;;;;;;6.80;99.90;;;;;;5094717;28;19935;-55
2022/10/12 02:25:03;;;;;;;;;;;6.90;99.90;;;;;;5025229;28;20556;-56
2022/10/12 02:27:31;;;;;;;;;;;6.90;99.90;;;;;;4991563;28;19933;-55
2022/10/12 02:29:59;;;;;;;;;;;7.00;99.90;;;;;;4991820;28;19933;-56
2022/10/12 02:32:28;;;;;;;;;;;7.10;99.90;;;;;;4991414;28;20277;-56
2022/10/12 02:35:00;;;;;;;;;;;7.10;99.90;;;;;;4991489;28;19930;-56
2022/10/12 02:37:39;;;;;;;;;;;7.10;99.90;;;;;;4993426;28;19925;-55
2022/10/12 02:40:29;;;;;;;;;;;7.10;99.90;;;;;;4991368;28;20253;-55
2022/10/12 02:43:00;;;;;;;;;;;7.20;99.90;;;;;;4991172;28;19930;-55
2022/10/12 02:45:43;;;;;;;;;;;7.20;99.90;;;;;;5058714;28;19926;-55
2022/10/12 02:48:12;;;;;;;;;;;7.20;99.90;;;;;;4991385;28;19930;-55
2022/10/12 02:50:40;;;;;;;;;;;7.30;99.90;;;;;;5083828;28;19924;-55
2022/10/12 02:53:07;;;;;;;;;;;7.30;99.90;;;;;;5093797;28;19943;-55
2022/10/12 02:55:48;;;;;;;;;;;7.30;99.90;;;;;;5094017;28;19924;-55
2022/10/12 02:58:16;;;;;;;;;;;7.30;99.90;;;;;;5093872;28;19924;-55
2022/10/12 03:00:43;;;;;;;;;;;7.30;99.90;;;;;;5093792;28;20407;-55
2022/10/12 03:03:11;;;;;;;;;;;7.40;99.90;;;;;;5093722;28;19931;-55
2022/10/12 03:05:38;;;;;;;;;;;7.40;99.90;;;;;;5093259;28;19990;-55
2022/10/12 03:08:05;;;;;;;;;;;7.40;99.90;;;;;;5093580;28;20366;-55
2022/10/12 03:10:33;;;;;;;;;;;7.50;99.90;;;;;;5093608;28;19924;-55
2022/10/12 03:13:00;;;;;;;;;;;7.50;99.90;;;;;;5093425;28;20053;-55
2022/10/12 03:15:27;;;;;;;;;;;7.50;99.90;;;;;;5093545;28;19931;-55
2022/10/12 03:17:55;;;;;;;;;;;7.60;99.90;;;;;;5093306;28;19933;-55
2022/10/12 03:20:22;;;;;;;;;;;7.60;99.90;;;;;;5093395;28;19924;-55
2022/10/12 03:22:50;;;;;;;;;;;7.60;99.90;;;;;;5075428;28;19923;-55
2022/10/12 03:25:17;;;;;;;;;;;7.70;99.90;;;;;;5093328;28;19924;-55
2022/10/12 03:27:45;;;;;;;;;;;7.70;99.90;;;;;;5092976;28;20707;-55
2022/10/12 03:30:12;;;;;;;;;;;7.70;99.90;;;;;;5093055;28;19930;-55
2022/10/12 03:32:40;;;;;;;;;;;7.70;99.90;;;;;;5093281;28;19938;-55
2022/10/12 03:35:07;;;;;;;;;;;7.80;99.90;;;;;;5093038;28;20310;-55
2022/10/12 03:37:35;;;;;;;;;;;7.90;99.90;;;;;;5074971;28;20416;-56
2022/10/12 03:40:03;;;;;;;;;;;7.90;99.90;;;;;;5092658;28;19931;-55
2022/10/12 03:42:30;;;;;;;;;;;7.90;99.90;;;;;;5093133;28;19931;-55
2022/10/12 03:44:58;;;;;;;;;;;7.90;99.90;;;;;;5092166;28;19931;-56
2022/10/12 03:47:25;;;;;;;;;;;7.90;99.90;;;;;;5092117;28;20379;-56
2022/10/12 03:49:52;;;;;;;;;;;8.00;99.90;;;;;;5108348;28;19924;-56
2022/10/12 03:52:20;;;;;;;;;;;8.00;99.90;;;;;;5092928;28;19931;-55
2022/10/12 03:54:47;;;;;;;;;;;8.00;99.90;;;;;;5092678;28;19947;-55
2022/10/12 03:57:14;;;;;;;;;;;8.00;99.90;;;;;;5092802;28;19924;-55
2022/10/12 03:59:42;;;;;;;;;;;8.00;99.90;;;;;;5108447;28;20291;-55
2022/10/12 04:02:09;;;;;;;;;;;7.90;99.90;;;;;;5092614;28;19931;-55
2022/10/12 04:04:43;;;;;;;;;;;7.90;99.90;;;;;;5074487;28;19924;-55
2022/10/12 04:07:10;;;;;;;;;;;7.90;99.90;;;;;;5092444;28;20409;-55
2022/10/12 04:09:38;;;;;;;;;;;7.90;99.90;;;;;;5074532;28;19924;-55
2022/10/12 04:12:05;;;;;;;;;;;8.00;99.90;;;;;;5092344;28;19924;-55
2022/10/12 04:14:32;;;;;;;;;;;8.00;99.90;;;;;;4990418;28;20301;-55
2022/10/12 04:17:00;;;;;;;;;;;8.00;99.90;;;;;;4989995;28;19926;-55
2022/10/12 04:19:27;;;;;;;;;;;8.00;99.90;;;;;;5030878;28;19935;-55
2022/10/12 04:21:54;;;;;;;;;;;8.00;99.90;;;;;;5092464;28;19954;-56
2022/10/12 04:24:22;;;;;;;;;;;8.10;99.90;;;;;;5041473;28;19925;-56
2022/10/12 04:26:49;;;;;;;;;;;8.10;99.90;;;;;;4989780;28;20262;-57
2022/10/12 04:29:17;;;;;;;;;;;8.10;99.90;;;;;;4990051;28;19926;-56
2022/10/12 04:31:44;;;;;;;;;;;8.20;99.90;;;;;;4989988;28;19925;-55
2022/10/12 04:34:12;;;;;;;;;;;8.20;99.90;;;;;;4990785;28;20377;-55
2022/10/12 04:36:39;;;;;;;;;;;8.20;99.90;;;;;;4989846;28;19933;-56
2022/10/12 04:39:07;;;;;;;;;;;8.20;99.90;;;;;;4989867;28;19929;-55
2022/10/12 04:41:34;;;;;;;;;;;8.20;99.90;;;;;;4989840;28;19925;-56
2022/10/12 04:44:01;;;;;;;;;;;8.20;99.90;;;;;;4989571;28;19932;-55
2022/10/12 04:46:29;;;;;;;;;;;8.30;99.90;;;;;;4989750;28;19926;-55
2022/10/12 04:48:56;;;;;;;;;;;8.30;99.90;;;;;;4998322;28;19928;-55
2022/10/12 04:51:24;;;;;;;;;;;8.30;99.90;;;;;;5088405;28;20290;-55
2022/10/12 04:53:51;;;;;;;;;;;8.30;99.90;;;;;;5070663;28;19931;-56
2022/10/12 04:56:18;;;;;;;;;;;8.40;99.90;;;;;;5089960;28;19928;-56
2022/10/12 04:58:46;;;;;;;;;;;8.40;99.90;;;;;;5007848;28;20587;-55
2022/10/12 05:01:14;;;;;;;;;;;8.30;99.90;;;;;;4970278;28;19926;-56
2022/10/12 05:03:41;;;;;;;;;;;8.30;99.90;;;;;;5034808;28;19934;-57
2022/10/12 05:06:09;;;;;;;;;;;8.40;99.90;;;;;;4967301;28;19930;-56
2022/10/12 05:08:36;;;;;;;;;;;8.20;99.90;;;;;;5050576;28;19928;-56
2022/10/12 05:11:04;;;;;;;;;;;8.20;99.90;;;;;;5091264;28;19931;-56
2022/10/12 05:13:31;;;;;;;;;;;8.20;99.90;;;;;;5088628;28;19923;-56
2022/10/12 05:15:58;;;;;;;;;;;8.20;99.90;;;;;;4981063;28;19925;-55
2022/10/12 05:18:26;;;;;;;;;;;8.20;99.90;;;;;;4987851;28;19934;-55
2022/10/12 05:20:53;;;;;;;;;;;8.20;99.90;;;;;;5091051;28;20378;-55
2022/10/12 05:23:23;;;;;;;;;;;8.20;99.90;;;;;;5103338;28;21092;-56
2022/10/12 05:25:53;;;;;;;;;;;8.20;99.90;;;;;;5071088;28;20442;-55
2022/10/12 05:28:20;;;;;;;;;;;8.20;99.90;;;;;;5107632;28;20337;-55
2022/10/12 05:30:48;;;;;;;;;;;8.20;99.90;;;;;;5091965;28;19928;-55
2022/10/12 05:33:16;;;;;;;;;;;8.20;99.90;;;;;;5082462;28;19947;-56
2022/10/12 05:35:44;;;;;;;;;;;8.20;99.90;;;;;;5071155;28;20076;-55
2022/10/12 05:38:16;;;;;;;;;;;8.20;99.90;;;;;;5074807;28;19930;-55
2022/10/12 05:40:43;;;;;;;;;;;8.20;99.90;;;;;;5091972;28;20282;-56
2022/10/12 05:43:11;;;;;;;;;;;8.20;99.90;;;;;;5053422;28;19930;-55
2022/10/12 05:45:38;;;;;;;;;;;8.20;99.90;;;;;;5056773;28;20367;-55
2022/10/12 05:48:06;;;;;;;;;;;8.30;99.90;;;;;;5002309;28;20417;-55
2022/10/12 05:50:33;;;;;;;;;;;8.30;99.90;;;;;;5074359;28;19924;-55
2022/10/12 05:53:01;;;;;;;;;;;8.30;99.90;;;;;;5091419;28;20102;-56
2022/10/12 05:55:28;;;;;;;;;;;8.30;99.90;;;;;;5091276;28;19935;-55
2022/10/12 05:58:01;;;;;;;;;;;8.40;99.90;;;;;;5091536;28;19924;-55
2022/10/12 06:00:29;;;;;;;;;;;8.40;99.90;;;;;;5073772;28;20425;-55
2022/10/12 06:02:56;;;;;;;;;;;8.30;99.90;;;;;;5072926;28;20452;-55
2022/10/12 06:05:24;;;;;;;;;;;8.40;99.90;;;;;;4969650;28;19938;-55
2022/10/12 06:07:51;;;;;;;;;;;8.50;99.90;;;;;;5011774;28;19924;-55
2022/10/12 06:10:19;;;;;;;;;;;8.50;99.90;;;;;;5089998;28;20378;-55
2022/10/12 06:12:46;;;;;;;;;;;8.50;99.90;;;;;;5076411;28;19924;-56
2022/10/12 06:15:14;;;;;;;;;;;8.50;99.90;;;;;;4986578;28;20507;-55
2022/10/12 06:17:41;;;;;;;;;;;8.60;99.90;;;;;;5014298;28;19928;-55
2022/10/12 06:20:09;;;;;;;;;;;8.60;99.90;;;;;;5050180;28;19931;-55
2022/10/12 06:22:36;;;;;;;;;;;8.60;99.90;;;;;;5030117;28;19936;-55
2022/10/12 06:25:04;;;;;;;;;;;8.60;99.90;;;;;;5073233;28;19931;-56
2022/10/12 06:27:32;;;;;;;;;;;8.60;99.90;;;;;;5090779;28;19931;-55
2022/10/12 06:29:59;;;;;;;;;;;8.70;99.90;;;;;;5015807;28;19926;-56
2022/10/12 06:32:26;;;;;;;;;;;8.70;99.90;;;;;;5065143;28;20455;-56
2022/10/12 06:34:54;;;;;;;;;;;8.70;99.90;;;;;;5000021;28;19933;-54
2022/10/12 06:37:21;;;;;;;;;;;8.70;99.90;;;;;;4974758;28;19932;-55
2022/10/12 06:40:09;;;;;;;;;;;8.80;99.90;;;;;;4968405;28;19956;-55
2022/10/12 06:42:36;;;;;;;;;;;8.80;99.90;;;;;;4970938;28;20423;-55
2022/10/12 06:45:05;;;;;;;;;;;8.80;99.90;;;;;;4986783;28;19926;-55
2022/10/12 06:47:32;;;;;;;;;;;8.80;99.90;;;;;;5007456;28;19924;-55
2022/10/12 06:50:00;;;;;;;;;;;8.80;99.90;;;;;;5053367;28;19924;-56
2022/10/12 06:52:27;;;;;;;;;;;8.80;99.90;;;;;;5065424;28;19976;-59
2022/10/12 06:54:55;;;;;;;;;;;8.80;99.90;;;;;;5047438;28;19949;-55
2022/10/12 06:57:22;;;;;;;;;;;8.90;99.90;;;;;;5014024;28;19931;-56
2022/10/12 06:59:50;;;;;;;;;;;8.90;99.90;;;;;;5032108;28;20000;-56
2022/10/12 07:02:17;;;;;;;;;;;8.90;99.90;;;;;;5007448;28;20546;-56
2022/10/12 07:04:48;;;;;;;;;;;8.90;99.90;;;;;;5020306;28;19926;-56
2022/10/12 07:07:16;;;;;;;;;;;8.90;99.90;;;;;;4998056;28;20304;-56
2022/10/12 07:09:43;;;;;;;;;;;8.90;99.90;;;;;;5050130;28;19926;-56
2022/10/12 07:12:10;;;;;;;;;;;9.00;99.90;;;;;;4978163;28;19937;-56
2022/10/12 07:14:38;;;;;;;;;;;9.00;99.90;;;;;;5028630;28;19926;-56
2022/10/12 07:17:06;;;;;;;;;;;9.00;99.90;;;;;;4972991;28;19941;-56
2022/10/12 07:19:33;;;;;;;;;;;9.00;99.90;;;;;;5088983;28;19955;-56
2022/10/12 07:22:01;;;;;;;;;;;9.10;99.90;;;;;;4983749;28;19926;-56
2022/10/12 07:24:35;;;;;;;;;;;9.10;99.90;;;;;;5030025;28;19926;-57
2022/10/12 07:27:03;;;;;;;;;;;9.20;99.90;;;;;;4970552;28;19933;-56
2022/10/12 07:29:31;;;;;;;;;;;9.20;99.90;;;;;;5090133;28;19923;-56
2022/10/12 07:31:59;;;;;;;;;;;9.30;99.90;;;;;;5090332;28;19928;-56
2022/10/12 07:34:27;;;;;;;;;;;9.40;99.90;;;;;;5060322;28;20413;-56
2022/10/12 07:36:54;;;;;;;;;;;9.40;99.90;;;;;;4984139;28;19933;-57
2022/10/12 07:39:26;;;;;;;;;;;9.40;99.90;;;;;;5061826;28;19945;-56
2022/10/12 07:41:53;;;;;;;;;;;9.40;99.90;;;;;;4980481;28;19932;-56
2022/10/12 07:44:21;;;;;;;;;;;9.50;99.90;;;;;;5067213;28;19932;-56
2022/10/12 07:46:49;;;;;;;;;;;9.50;99.90;;;;;;5089930;28;20325;-57
2022/10/12 07:49:17;;;;;;;;;;;9.60;99.90;;;;;;5063569;28;19924;-55
2022/10/12 07:51:46;;;;;;;;;;;9.60;99.90;;;;;;5023859;28;19930;-56
2022/10/12 07:54:13;;;;;;;;;;;9.60;99.90;;;;;;5035057;28;19946;-56
2022/10/12 07:56:47;;;;;;;;;;;9.60;99.90;;;;;;4967888;28;19926;-56
2022/10/12 07:59:15;;;;;;;;;;;9.70;99.90;;;;;;5002881;28;19930;-56
2022/10/12 08:01:42;;;;;;;;;;;9.70;99.90;;;;;;5004777;28;19925;-56
2022/10/12 08:04:10;;;;;;;;;;;9.70;99.90;;;;;;5060331;28;19931;-56
2022/10/12 08:06:40;;;;;;;;;;;9.80;99.90;;;;;;5089546;28;20387;-56
2022/10/12 08:09:08;;;;;;;;;;;9.80;99.90;;;;;;5089250;28;19924;-57
2022/10/12 08:11:39;;;;;;;;;;;9.80;99.90;;;;;;4969518;28;20277;-57
2022/10/12 08:14:14;;;;;;;;;;;9.90;99.90;;;;;;5057410;28;20454;-57
2022/10/12 08:16:42;;;;;;;;;;;9.90;99.90;;;;;;4999859;28;19925;-56
2022/10/12 08:19:10;;;;;;;;;;;9.90;99.90;;;;;;5023343;28;19925;-55
2022/10/12 08:21:37;;;;;;;;;;;9.90;99.90;;;;;;4997191;28;19926;-54
2022/10/12 08:24:05;;;;;;;;;;;10.00;99.90;;;;;;5019106;28;19926;-54
2022/10/12 08:26:32;;;;;;;;;;;10.00;99.90;;;;;;4990723;28;20305;-55
2022/10/12 08:29:00;;;;;;;;;;;10.10;99.90;;;;;;5045863;28;19945;-56
2022/10/12 08:31:28;;;;;;;;;;;10.10;99.90;;;;;;4994558;28;19934;-56
2022/10/12 08:33:56;;;;;;;;;;;10.10;99.90;;;;;;5063231;28;19942;-55
2022/10/12 08:36:23;;;;;;;;;;;10.10;99.90;;;;;;5068543;28;19931;-55
2022/10/12 08:38:53;;;;;;;;;;;10.10;99.90;;;;;;5019138;28;19930;-55
2022/10/12 08:41:33;;;;;;;;;;;10.20;99.90;;;;;;5056877;28;19930;-56
2022/10/12 08:44:22;;;;;;;;;;;10.10;99.90;;;;;;4984980;28;20122;-55
2022/10/12 08:46:54;;;;;;;;;;;10.20;99.90;;;;;;4972533;28;19937;-55
2022/10/12 08:49:24;;;;;;;;;;;10.20;99.90;;;;;;5035984;28;19938;-56
2022/10/12 08:51:54;;;;;;;;;;;10.20;99.90;;;;;;4967882;28;19935;-55
2022/10/12 08:54:23;;;;;;;;;;;10.20;99.90;;;;;;5049996;28;19925;-56
2022/10/12 08:56:54;;;;;;;;;;;10.30;99.90;;;;;;4995016;28;19926;-56
2022/10/12 08:59:24;;;;;;;;;;;10.30;99.90;;;;;;5002284;28;19931;-57
2022/10/12 09:02:07;;;;;;;;;;;10.40;99.90;;;;;;4973623;28;20402;-56
2022/10/12 09:04:49;;;;;;;;;;;10.40;99.90;;;;;;4975651;28;19935;-56
2022/10/12 09:07:19;;;;;;;;;;;10.40;99.90;;;;;;5057184;28;19926;-57
2022/10/12 09:09:49;;;;;;;;;;;10.50;99.90;;;;;;4975721;28;19937;-55
2022/10/12 09:12:35;;;;;;;;;;;10.50;99.90;;;;;;4966399;28;19926;-57
2022/10/12 09:15:09;;;;;;;;;;;10.50;99.90;;;;;;4990193;28;20289;-56
2022/10/12 09:17:42;;;;;;;;;;;10.60;99.90;;;;;;4993268;28;20283;-56
2022/10/12 09:20:19;;;;;;;;;;;10.60;99.90;;;;;;5021669;28;19934;-56
2022/10/12 09:22:49;;;;;;;;;;;10.70;99.90;;;;;;4971607;28;20573;-57
2022/10/12 09:25:18;;;;;;;;;;;10.80;99.90;;;;;;5027911;28;19936;-57
2022/10/12 09:27:46;;;;;;;;;;;10.80;99.90;;;;;;5003908;28;19928;-56
2022/10/12 09:30:15;;;;;;;;;;;10.90;99.90;;;;;;4972678;28;19927;-56
2022/10/12 09:33:03;;;;;;;;;;;11.00;99.90;;;;;;4987195;28;19933;-56
2022/10/12 09:35:31;;;;;;;;;;;11.10;99.90;;;;;;5002593;28;20381;-55
2022/10/12 09:37:59;;;;;;;;;;;11.10;99.90;;;;;;5015985;28;19931;-56
2022/10/12 09:40:31;;;;;;;;;;;11.20;99.90;;;;;;5013857;28;20386;-56
2022/10/12 09:43:01;;;;;;;;;;;11.30;99.90;;;;;;4985943;28;19948;-56
2022/10/12 09:45:31;;;;;;;;;;;11.40;99.90;;;;;;4981762;28;19933;-56
2022/10/12 09:48:07;;;;;;;;;;;11.60;99.90;;;;;;5043819;28;19983;-55
2022/10/12 09:50:39;;;;;;;;;;;11.90;99.90;;;;;;5071302;28;19924;-56
2022/10/12 09:53:17;;;;;;;;;;;13.70;99.90;;;;;;5037124;28;19935;-56
2022/10/12 09:55:52;;;;;;;;;;;12.10;99.90;;;;;;5063461;28;20371;-56
2022/10/12 09:58:20;;;;;;;;;;;12.40;99.90;;;;;;5030378;28;19928;-56
2022/10/12 10:01:08;;;;;;;;;;;12.60;99.90;;;;;;4962197;28;21740;-56
2022/10/12 10:03:35;;;;;;;;;;;12.80;99.90;;;;;;4987090;28;20295;-55
2022/10/12 10:06:03;;;;;;;;;;;13.00;99.90;;;;;;5032762;28;19926;-55
2022/10/12 10:08:38;;;;;;;;;;;13.10;99.90;;;;;;4969573;28;19931;-57
2022/10/12 10:11:12;;;;;;;;;;;13.30;99.90;;;;;;4965416;28;19937;-56
2022/10/12 10:13:43;;;;;;;;;;;13.30;99.90;;;;;;4986928;28;19937;-56
2022/10/12 10:16:11;;;;;;;;;;;13.30;99.90;;;;;;5048613;28;19945;-56
2022/10/12 10:18:42;;;;;;;;;;;13.40;99.90;;;;;;5041152;28;20326;-56
2022/10/12 10:21:11;;;;;;;;;;;13.40;99.90;;;;;;5032123;28;19957;-56
2022/10/12 10:23:43;;;;;;;;;;;13.40;99.90;;;;;;5007679;28;19932;-56
2022/10/12 10:26:12;;;;;;;;;;;13.30;99.90;;;;;;4985427;28;19926;-56
2022/10/12 10:28:40;;;;;;;;;;;13.30;99.90;;;;;;5041298;28;19932;-55
2022/10/12 10:31:11;;;;;;;;;;;13.40;99.90;;;;;;5034222;28;19937;-56
2022/10/12 10:33:39;;;;;;;;;;;13.50;99.90;;;;;;4984725;28;20399;-55
2022/10/12 10:36:19;;;;;;;;;;;13.70;99.90;;;;;;4969130;28;20376;-56
2022/10/12 10:38:46;;;;;;;;;;;13.90;99.90;;;;;;4963595;28;20385;-56
2022/10/12 10:41:16;;;;;;;;;;;14.00;99.90;;;;;;4984268;28;19930;-56
2022/10/12 10:43:47;;;;;;;;;;;14.00;99.90;;;;;;4967159;28;19965;-56
2022/10/12 10:46:21;;;;;;;;;;;14.10;99.90;;;;;;4958214;28;19956;-56
2022/10/12 10:48:50;;;;;;;;;;;14.20;99.90;;;;;;5006285;28;19931;-56
2022/10/12 10:51:17;;;;;;;;;;;14.40;99.90;;;;;;5040642;28;20452;-56
2022/10/12 10:53:46;;;;;;;;;;;14.40;99.90;;;;;;5010927;28;19939;-57
2022/10/12 10:56:24;;;;;;;;;;;14.40;99.90;;;;;;5050026;28;19926;-57
2022/10/12 10:58:56;;;;;;;;;;;14.30;99.90;;;;;;5042741;28;19936;-57
2022/10/12 11:01:25;;;;;;;;;;;14.30;99.90;;;;;;4976433;28;19949;-56
2022/10/12 11:03:53;;;;;;;;;;;14.20;99.90;;;;;;5035947;28;19930;-57
2022/10/12 11:06:28;;;;;;;;;;;14.00;99.90;;;;;;4967300;28;19931;-56
2022/10/12 11:09:02;;;;;;;;;;;14.00;99.90;;;;;;5037458;28;19925;-56
2022/10/12 11:11:31;;;;;;;;;;;13.80;99.90;;;;;;4978041;28;20340;-56
2022/10/12 11:14:01;;;;;;;;;;;13.70;99.90;;;;;;4984346;28;19932;-57
2022/10/12 11:16:28;;;;;;;;;;;13.80;99.90;;;;;;4976587;28;19927;-56
2022/10/12 11:18:57;;;;;;;;;;;13.80;99.90;;;;;;4981124;28;19949;-56
2022/10/12 11:21:50;;;;;;;;;;;13.90;99.90;;;;;;5032233;28;19927;-57
2022/10/12 11:24:20;;;;;;;;;;;13.90;99.90;;;;;;5006978;28;19933;-57
2022/10/12 11:27:06;;;;;;;;;;;14.00;99.90;;;;;;5032387;28;19930;-57
2022/10/12 11:29:37;;;;;;;;;;;14.10;99.90;;;;;;5057801;28;19949;-56
2022/10/12 11:32:06;;;;;;;;;;;14.10;99.90;;;;;;4962410;28;19927;-56
2022/10/12 11:34:48;;;;;;;;;;;14.10;99.90;;;;;;4972694;28;19933;-56
2022/10/12 11:37:18;;;;;;;;;;;14.00;99.90;;;;;;4974098;28;20385;-56
2022/10/12 11:39:52;;;;;;;;;;;14.00;99.90;;;;;;4985182;28;19938;-57
2022/10/12 11:42:37;;;;;;;;;;;13.90;99.90;;;;;;4971698;28;19933;-57
2022/10/12 11:45:28;;;;;;;;;;;13.90;99.90;;;;;;4981998;28;19933;-57
2022/10/12 11:48:06;;;;;;;;;;;13.80;99.90;;;;;;4974541;28;20003;-57
2022/10/12 11:50:36;;;;;;;;;;;13.70;99.90;;;;;;4964848;28;19938;-57
2022/10/12 11:53:06;;;;;;;;;;;13.70;99.90;;;;;;4983355;28;19926;-57
2022/10/12 11:55:43;;;;;;;;;;;13.60;99.90;;;;;;5051951;28;19926;-55
2022/10/12 11:58:16;;;;;;;;;;;13.50;99.90;;;;;;5034868;28;19945;-58
2022/10/12 12:00:56;;;;;;;;;;;13.40;99.90;;;;;;5050768;28;19926;-57
2022/10/12 12:03:28;;;;;;;;;;;13.30;99.90;;;;;;4980101;28;20297;-57
2022/10/12 12:06:16;;;;;;;;;;;13.20;99.90;;;;;;4978618;28;20389;-57
2022/10/12 12:08:43;;;;;;;;;;;13.20;99.90;;;;;;5036313;28;19947;-57
2022/10/12 12:11:19;;;;;;;;;;;13.10;99.90;;;;;;4986935;28;20637;-57
2022/10/12 12:13:46;;;;;;;;;;;13.20;99.90;;;;;;5062890;28;19925;-57
2022/10/12 12:16:17;;;;;;;;;;;13.20;99.90;;;;;;5039491;28;19927;-57
2022/10/12 12:19:03;;;;;;;;;;;13.20;99.90;;;;;;5017386;28;19926;-57
2022/10/12 12:21:50;;;;;;;;;;;13.20;99.90;;;;;;4959559;28;19937;-57
2022/10/12 12:24:19;;;;;;;;;;;13.30;99.90;;;;;;5014731;28;19937;-56
2022/10/12 12:26:46;;;;;;;;;;;13.30;99.90;;;;;;4956922;28;19933;-57
2022/10/12 12:29:24;;;;;;;;;;;13.40;99.90;;;;;;5013395;28;19938;-57
2022/10/12 12:31:55;;;;;;;;;;;13.50;99.90;;;;;;4957350;28;20325;-57
2022/10/12 12:34:22;;;;;;;;;;;13.60;99.90;;;;;;4968612;28;20305;-57
2022/10/12 12:36:51;;;;;;;;;;;13.60;99.90;;;;;;4971821;28;20277;-57
2022/10/12 12:39:18;;;;;;;;;;;13.70;99.90;;;;;;4993365;28;19925;-57
2022/10/12 12:41:49;;;;;;;;;;;13.70;99.90;;;;;;4986577;28;19929;-57
2022/10/12 12:44:42;;;;;;;;;;;13.80;99.90;;;;;;5037761;28;20299;-57
2022/10/12 12:47:10;;;;;;;;;;;13.80;99.90;;;;;;5024377;28;19926;-56
2022/10/12 12:50:04;;;;;;;;;;;13.90;99.90;;;;;;5007721;28;19934;-57
2022/10/12 12:52:33;;;;;;;;;;;13.90;99.90;;;;;;4977787;28;19934;-56
2022/10/12 12:55:12;;;;;;;;;;;13.90;99.90;;;;;;5033453;28;19929;-56
2022/10/12 12:58:00;;;;;;;;;;;13.90;99.90;;;;;;5004037;28;19931;-57
2022/10/12 13:00:31;;;;;;;;;;;13.90;99.90;;;;;;5014096;28;19927;-57
2022/10/12 13:03:06;;;;;;;;;;;14.00;99.90;;;;;;4961274;28;19926;-56
2022/10/12 13:05:46;;;;;;;;;;;14.00;99.90;;;;;;4996708;28;19997;-57
2022/10/12 13:08:22;;;;;;;;;;;14.00;99.90;;;;;;4971760;28;19933;-56
2022/10/12 13:11:08;;;;;;;;;;;14.10;99.90;;;;;;5017763;28;19934;-56
2022/10/12 13:14:02;;;;;;;;;;;14.10;99.90;;;;;;4971919;28;19937;-56
2022/10/12 13:16:45;;;;;;;;;;;14.10;99.90;;;;;;4955221;28;19926;-56
2022/10/12 13:19:34;;;;;;;;;;;14.10;99.90;;;;;;5070813;28;19929;-56
2022/10/12 13:22:02;;;;;;;;;;;14.10;99.90;;;;;;4992972;28;19933;-57
2022/10/12 13:24:32;;;;;;;;;;;14.10;99.90;;;;;;4991512;28;19925;-56
2022/10/12 13:27:20;;;;;;;;;;;14.10;99.90;;;;;;4989695;28;19930;-56
2022/10/12 13:29:47;;;;;;;;;;;14.10;99.90;;;;;;4963099;28;19930;-56
2022/10/12 13:32:27;;;;;;;;;;;14.10;99.90;;;;;;4965558;28;19933;-56
2022/10/12 13:34:56;;;;;;;;;;;14.10;99.90;;;;;;5035853;28;20409;-56
2022/10/12 13:37:28;;;;;;;;;;;14.10;99.90;;;;;;4966019;28;19930;-57
2022/10/12 13:39:56;;;;;;;;;;;14.20;99.90;;;;;;4973998;28;19938;-56
2022/10/12 13:42:26;;;;;;;;;;;14.30;99.90;;;;;;4969874;28;20389;-57
2022/10/12 13:44:54;;;;;;;;;;;14.30;99.90;;;;;;5028054;28;20424;-57
2022/10/12 13:47:25;;;;;;;;;;;14.30;99.90;;;;;;4969397;28;19927;-57
2022/10/12 13:49:54;;;;;;;;;;;14.30;99.90;;;;;;4990936;28;20644;-56
2022/10/12 13:52:32;;;;;;;;;;;14.30;99.90;;;;;;4973360;28;20270;-57
2022/10/12 13:54:59;;;;;;;;;;;14.30;99.90;;;;;;5057980;28;19932;-56
2022/10/12 13:57:31;;;;;;;;;;;14.30;99.90;;;;;;5033166;28;19938;-57
2022/10/12 14:00:14;;;;;;;;;;;14.40;99.90;;;;;;4971291;28;19926;-56
2022/10/12 14:02:42;;;;;;;;;;;14.40;99.90;;;;;;4964308;28;19938;-57
2022/10/12 14:05:18;;;;;;;;;;;14.50;99.90;;;;;;4963086;28;19927;-56
2022/10/12 14:07:45;;;;;;;;;;;14.50;99.90;;;;;;5034478;28;20398;-56
2022/10/12 14:10:25;;;;;;;;;;;14.50;99.90;;;;;;4965815;28;19933;-57
2022/10/12 14:12:53;;;;;;;;;;;14.50;99.90;;;;;;4969463;28;19926;-57
2022/10/12 14:15:22;;;;;;;;;;;14.50;99.90;;;;;;4977491;28;19933;-57
2022/10/12 14:17:49;;;;;;;;;;;14.50;99.90;;;;;;5041841;28;20083;-57
2022/10/12 14:20:17;;;;;;;;;;;14.40;99.90;;;;;;4974095;28;19932;-56
2022/10/12 14:22:46;;;;;;;;;;;14.40;99.90;;;;;;4966977;28;19933;-57
2022/10/12 14:25:18;;;;;;;;;;;14.30;99.90;;;;;;4974896;28;20376;-57
2022/10/12 14:27:45;;;;;;;;;;;14.30;99.90;;;;;;5037886;28;20412;-55
2022/10/12 14:30:17;;;;;;;;;;;14.30;99.90;;;;;;4974707;28;19930;-56
2022/10/12 14:32:45;;;;;;;;;;;14.20;99.90;;;;;;4992300;28;19934;-56
2022/10/12 14:35:20;;;;;;;;;;;14.20;99.90;;;;;;4976821;28;20483;-56
2022/10/12 14:37:48;;;;;;;;;;;14.20;99.90;;;;;;4993598;28;19939;-56
2022/10/12 14:40:23;;;;;;;;;;;14.20;99.90;;;;;;5035135;28;19926;-56
2022/10/12 14:43:17;;;;;;;;;;;14.30;99.90;;;;;;4968147;28;19934;-55
2022/10/12 14:45:44;;;;;;;;;;;14.30;99.90;;;;;;4986264;28;19933;-57